sensor_id;sensor_type;location;lat;lon;timestamp;P1;durP1;ratioP1;P2;durP2;ratioP2
16669;SDS011;8448;52.034;5.158;2024-01-30T00:00:33;22.37;;;14.60;;
16669;SDS011;8448;52.034;5.158;2024-01-30T00:03:01;24.40;;;15.37;;
16669;SDS011;8448;52.034;5.158;2024-01-30T00:05:28;21.43;;;14.40;;
16669;SDS011;8448;52.034;5.158;2024-01-30T00:07:57;25.23;;;14.80;;
16669;SDS011;8448;52.034;5.158;2024-01-30T00:10:24;22.00;;;15.03;;
16669;SDS011;8448;52.034;5.158;2024-01-30T00:12:51;20.93;;;14.77;;
16669;SDS011;8448;52.034;5.158;2024-01-30T00:15:19;21.73;;;14.53;;
16669;SDS011;8448;52.034;5.158;2024-01-30T00:17:46;22.27;;;14.67;;
16669;SDS011;8448;52.034;5.158;2024-01-30T00:20:14;21.00;;;13.90;;
16669;SDS011;8448;52.034;5.158;2024-01-30T00:22:41;21.23;;;14.67;;
16669;SDS011;8448;52.034;5.158;2024-01-30T00:25:10;22.57;;;14.00;;
16669;SDS011;8448;52.034;5.158;2024-01-30T00:27:37;21.17;;;13.80;;
16669;SDS011;8448;52.034;5.158;2024-01-30T00:30:05;19.33;;;13.27;;
16669;SDS011;8448;52.034;5.158;2024-01-30T00:32:33;20.93;;;13.10;;
16669;SDS011;8448;52.034;5.158;2024-01-30T00:35:00;20.83;;;13.37;;
16669;SDS011;8448;52.034;5.158;2024-01-30T00:37:27;21.60;;;14.23;;
16669;SDS011;8448;52.034;5.158;2024-01-30T00:39:56;20.70;;;13.70;;
16669;SDS011;8448;52.034;5.158;2024-01-30T00:42:24;21.90;;;13.90;;
16669;SDS011;8448;52.034;5.158;2024-01-30T00:44:52;22.37;;;14.27;;
16669;SDS011;8448;52.034;5.158;2024-01-30T00:47:19;21.40;;;12.97;;
16669;SDS011;8448;52.034;5.158;2024-01-30T00:49:46;22.30;;;14.00;;
16669;SDS011;8448;52.034;5.158;2024-01-30T00:52:14;20.73;;;14.07;;
16669;SDS011;8448;52.034;5.158;2024-01-30T00:54:42;21.57;;;13.07;;
16669;SDS011;8448;52.034;5.158;2024-01-30T00:57:09;19.70;;;13.50;;
16669;SDS011;8448;52.034;5.158;2024-01-30T00:59:38;21.47;;;13.83;;
16669;SDS011;8448;52.034;5.158;2024-01-30T01:02:05;18.80;;;13.13;;
16669;SDS011;8448;52.034;5.158;2024-01-30T01:04:32;20.27;;;12.23;;
16669;SDS011;8448;52.034;5.158;2024-01-30T01:06:59;18.77;;;13.13;;
16669;SDS011;8448;52.034;5.158;2024-01-30T01:09:27;20.87;;;13.07;;
16669;SDS011;8448;52.034;5.158;2024-01-30T01:11:54;19.73;;;12.80;;
16669;SDS011;8448;52.034;5.158;2024-01-30T01:14:21;19.33;;;13.00;;
16669;SDS011;8448;52.034;5.158;2024-01-30T01:16:50;16.83;;;12.07;;
16669;SDS011;8448;52.034;5.158;2024-01-30T01:19:17;21.57;;;13.30;;
16669;SDS011;8448;52.034;5.158;2024-01-30T01:21:45;19.77;;;12.90;;
16669;SDS011;8448;52.034;5.158;2024-01-30T01:24:12;19.93;;;12.70;;
16669;SDS011;8448;52.034;5.158;2024-01-30T01:26:39;19.07;;;12.53;;
16669;SDS011;8448;52.034;5.158;2024-01-30T01:29:07;18.30;;;12.80;;
16669;SDS011;8448;52.034;5.158;2024-01-30T01:31:37;19.63;;;12.77;;
16669;SDS011;8448;52.034;5.158;2024-01-30T01:34:10;19.43;;;12.33;;
16669;SDS011;8448;52.034;5.158;2024-01-30T01:36:37;19.70;;;13.23;;
16669;SDS011;8448;52.034;5.158;2024-01-30T01:39:04;22.13;;;12.97;;
16669;SDS011;8448;52.034;5.158;2024-01-30T01:41:33;17.13;;;12.10;;
16669;SDS011;8448;52.034;5.158;2024-01-30T01:44:00;19.03;;;12.67;;
16669;SDS011;8448;52.034;5.158;2024-01-30T01:46:29;19.43;;;12.43;;
16669;SDS011;8448;52.034;5.158;2024-01-30T01:48:59;17.87;;;12.30;;
16669;SDS011;8448;52.034;5.158;2024-01-30T01:51:28;16.90;;;11.93;;
16669;SDS011;8448;52.034;5.158;2024-01-30T01:53:57;18.23;;;12.00;;
16669;SDS011;8448;52.034;5.158;2024-01-30T01:56:27;19.83;;;12.80;;
16669;SDS011;8448;52.034;5.158;2024-01-30T01:58:54;19.20;;;13.00;;
16669;SDS011;8448;52.034;5.158;2024-01-30T02:01:22;18.67;;;12.57;;
16669;SDS011;8448;52.034;5.158;2024-01-30T02:03:50;17.93;;;12.13;;
16669;SDS011;8448;52.034;5.158;2024-01-30T02:06:18;19.23;;;12.80;;
16669;SDS011;8448;52.034;5.158;2024-01-30T02:08:47;19.07;;;12.67;;
16669;SDS011;8448;52.034;5.158;2024-01-30T02:11:14;21.57;;;12.90;;
16669;SDS011;8448;52.034;5.158;2024-01-30T02:13:42;19.07;;;13.10;;
16669;SDS011;8448;52.034;5.158;2024-01-30T02:16:09;19.67;;;12.37;;
16669;SDS011;8448;52.034;5.158;2024-01-30T02:18:36;21.53;;;13.43;;
16669;SDS011;8448;52.034;5.158;2024-01-30T02:21:09;19.33;;;12.87;;
16669;SDS011;8448;52.034;5.158;2024-01-30T02:23:37;18.97;;;12.57;;
16669;SDS011;8448;52.034;5.158;2024-01-30T02:26:04;19.57;;;13.13;;
16669;SDS011;8448;52.034;5.158;2024-01-30T02:28:32;19.03;;;12.77;;
16669;SDS011;8448;52.034;5.158;2024-01-30T02:30:59;19.53;;;12.80;;
16669;SDS011;8448;52.034;5.158;2024-01-30T02:33:26;20.57;;;13.27;;
16669;SDS011;8448;52.034;5.158;2024-01-30T02:35:54;20.23;;;12.33;;
16669;SDS011;8448;52.034;5.158;2024-01-30T02:38:22;22.60;;;13.73;;
16669;SDS011;8448;52.034;5.158;2024-01-30T02:40:51;19.03;;;12.80;;
16669;SDS011;8448;52.034;5.158;2024-01-30T02:43:19;19.33;;;13.23;;
16669;SDS011;8448;52.034;5.158;2024-01-30T02:45:46;22.00;;;13.57;;
16669;SDS011;8448;52.034;5.158;2024-01-30T02:48:19;21.07;;;13.73;;
16669;SDS011;8448;52.034;5.158;2024-01-30T02:50:46;22.23;;;14.50;;
16669;SDS011;8448;52.034;5.158;2024-01-30T02:53:14;19.90;;;13.23;;
16669;SDS011;8448;52.034;5.158;2024-01-30T02:55:42;21.10;;;13.63;;
16669;SDS011;8448;52.034;5.158;2024-01-30T02:58:10;19.27;;;12.73;;
16669;SDS011;8448;52.034;5.158;2024-01-30T03:00:37;20.17;;;13.53;;
16669;SDS011;8448;52.034;5.158;2024-01-30T03:03:04;19.53;;;14.10;;
16669;SDS011;8448;52.034;5.158;2024-01-30T03:05:32;19.73;;;12.83;;
16669;SDS011;8448;52.034;5.158;2024-01-30T03:07:59;20.13;;;13.50;;
16669;SDS011;8448;52.034;5.158;2024-01-30T03:10:26;19.23;;;13.00;;
16669;SDS011;8448;52.034;5.158;2024-01-30T03:12:55;20.23;;;13.23;;
16669;SDS011;8448;52.034;5.158;2024-01-30T03:15:22;22.80;;;14.40;;
16669;SDS011;8448;52.034;5.158;2024-01-30T03:17:49;20.93;;;13.90;;
16669;SDS011;8448;52.034;5.158;2024-01-30T03:20:17;22.03;;;14.10;;
16669;SDS011;8448;52.034;5.158;2024-01-30T03:22:44;19.27;;;13.30;;
16669;SDS011;8448;52.034;5.158;2024-01-30T03:25:11;19.17;;;12.43;;
16669;SDS011;8448;52.034;5.158;2024-01-30T03:27:39;20.33;;;13.20;;
16669;SDS011;8448;52.034;5.158;2024-01-30T03:30:08;21.43;;;13.73;;
16669;SDS011;8448;52.034;5.158;2024-01-30T03:32:36;23.50;;;14.67;;
16669;SDS011;8448;52.034;5.158;2024-01-30T03:35:03;19.37;;;13.67;;
16669;SDS011;8448;52.034;5.158;2024-01-30T03:37:31;21.43;;;14.70;;
16669;SDS011;8448;52.034;5.158;2024-01-30T03:39:58;22.23;;;13.90;;
16669;SDS011;8448;52.034;5.158;2024-01-30T03:42:25;21.50;;;13.57;;
16669;SDS011;8448;52.034;5.158;2024-01-30T03:44:53;19.73;;;13.63;;
16669;SDS011;8448;52.034;5.158;2024-01-30T03:47:21;20.65;;;13.68;;
16669;SDS011;8448;52.034;5.158;2024-01-30T03:49:49;19.20;;;13.47;;
16669;SDS011;8448;52.034;5.158;2024-01-30T03:52:16;23.27;;;13.87;;
16669;SDS011;8448;52.034;5.158;2024-01-30T03:54:44;19.93;;;13.70;;
16669;SDS011;8448;52.034;5.158;2024-01-30T03:57:11;22.00;;;14.20;;
16669;SDS011;8448;52.034;5.158;2024-01-30T03:59:41;20.47;;;13.43;;
16669;SDS011;8448;52.034;5.158;2024-01-30T04:02:09;21.00;;;13.80;;
16669;SDS011;8448;52.034;5.158;2024-01-30T04:04:38;19.97;;;13.37;;
16669;SDS011;8448;52.034;5.158;2024-01-30T04:07:05;18.83;;;12.60;;
16669;SDS011;8448;52.034;5.158;2024-01-30T04:09:33;19.40;;;13.40;;
16669;SDS011;8448;52.034;5.158;2024-01-30T04:12:00;19.87;;;13.23;;
16669;SDS011;8448;52.034;5.158;2024-01-30T04:14:28;20.33;;;12.73;;
16669;SDS011;8448;52.034;5.158;2024-01-30T04:16:55;17.97;;;12.40;;
16669;SDS011;8448;52.034;5.158;2024-01-30T04:19:22;19.63;;;12.97;;
16669;SDS011;8448;52.034;5.158;2024-01-30T04:21:51;20.30;;;13.07;;
16669;SDS011;8448;52.034;5.158;2024-01-30T04:24:18;19.90;;;13.07;;
16669;SDS011;8448;52.034;5.158;2024-01-30T04:26:46;20.40;;;12.40;;
16669;SDS011;8448;52.034;5.158;2024-01-30T04:29:13;19.60;;;12.40;;
16669;SDS011;8448;52.034;5.158;2024-01-30T04:31:40;19.43;;;12.57;;
16669;SDS011;8448;52.034;5.158;2024-01-30T04:34:07;20.93;;;12.30;;
16669;SDS011;8448;52.034;5.158;2024-01-30T04:36:35;20.97;;;12.30;;
16669;SDS011;8448;52.034;5.158;2024-01-30T04:39:03;17.93;;;11.93;;
16669;SDS011;8448;52.034;5.158;2024-01-30T04:41:31;19.77;;;12.30;;
16669;SDS011;8448;52.034;5.158;2024-01-30T04:43:59;18.50;;;12.17;;
16669;SDS011;8448;52.034;5.158;2024-01-30T04:46:26;17.37;;;11.93;;
16669;SDS011;8448;52.034;5.158;2024-01-30T04:48:53;19.87;;;12.20;;
16669;SDS011;8448;52.034;5.158;2024-01-30T04:51:21;17.43;;;12.23;;
16669;SDS011;8448;52.034;5.158;2024-01-30T04:53:48;18.20;;;12.40;;
16669;SDS011;8448;52.034;5.158;2024-01-30T04:56:16;18.63;;;12.20;;
16669;SDS011;8448;52.034;5.158;2024-01-30T04:58:44;18.90;;;11.47;;
16669;SDS011;8448;52.034;5.158;2024-01-30T05:01:14;16.10;;;11.50;;
16669;SDS011;8448;52.034;5.158;2024-01-30T05:03:42;15.67;;;10.97;;
16669;SDS011;8448;52.034;5.158;2024-01-30T05:06:09;18.10;;;12.13;;
16669;SDS011;8448;52.034;5.158;2024-01-30T05:08:37;18.67;;;11.63;;
16669;SDS011;8448;52.034;5.158;2024-01-30T05:11:04;17.37;;;11.63;;
16669;SDS011;8448;52.034;5.158;2024-01-30T05:13:33;17.57;;;12.10;;
16669;SDS011;8448;52.034;5.158;2024-01-30T05:16:01;18.60;;;12.03;;
16669;SDS011;8448;52.034;5.158;2024-01-30T05:18:29;15.93;;;11.20;;
16669;SDS011;8448;52.034;5.158;2024-01-30T05:20:56;17.20;;;12.07;;
16669;SDS011;8448;52.034;5.158;2024-01-30T05:23:24;18.17;;;11.43;;
16669;SDS011;8448;52.034;5.158;2024-01-30T05:25:52;18.20;;;11.00;;
16669;SDS011;8448;52.034;5.158;2024-01-30T05:28:19;17.07;;;13.00;;
16669;SDS011;8448;52.034;5.158;2024-01-30T05:30:48;16.30;;;10.90;;
16669;SDS011;8448;52.034;5.158;2024-01-30T05:33:15;19.10;;;11.43;;
16669;SDS011;8448;52.034;5.158;2024-01-30T05:35:42;15.80;;;11.00;;
16669;SDS011;8448;52.034;5.158;2024-01-30T05:38:11;15.77;;;11.20;;
16669;SDS011;8448;52.034;5.158;2024-01-30T05:40:39;16.00;;;11.10;;
16669;SDS011;8448;52.034;5.158;2024-01-30T05:43:06;14.63;;;10.43;;
16669;SDS011;8448;52.034;5.158;2024-01-30T05:45:33;15.33;;;10.60;;
16669;SDS011;8448;52.034;5.158;2024-01-30T05:48:02;16.20;;;11.20;;
16669;SDS011;8448;52.034;5.158;2024-01-30T05:50:30;15.10;;;10.47;;
16669;SDS011;8448;52.034;5.158;2024-01-30T05:52:57;16.23;;;10.33;;
16669;SDS011;8448;52.034;5.158;2024-01-30T05:55:25;15.70;;;10.40;;
16669;SDS011;8448;52.034;5.158;2024-01-30T05:57:52;17.70;;;10.40;;
16669;SDS011;8448;52.034;5.158;2024-01-30T06:00:19;16.53;;;10.27;;
16669;SDS011;8448;52.034;5.158;2024-01-30T06:02:47;18.87;;;10.77;;
16669;SDS011;8448;52.034;5.158;2024-01-30T06:05:15;16.50;;;10.23;;
16669;SDS011;8448;52.034;5.158;2024-01-30T06:07:43;15.63;;;10.90;;
16669;SDS011;8448;52.034;5.158;2024-01-30T06:10:10;14.33;;;10.17;;
16669;SDS011;8448;52.034;5.158;2024-01-30T06:12:37;15.13;;;9.60;;
16669;SDS011;8448;52.034;5.158;2024-01-30T06:15:05;17.83;;;10.93;;
16669;SDS011;8448;52.034;5.158;2024-01-30T06:17:33;17.37;;;10.50;;
16669;SDS011;8448;52.034;5.158;2024-01-30T06:20:01;14.17;;;10.13;;
16669;SDS011;8448;52.034;5.158;2024-01-30T06:22:30;15.23;;;10.40;;
16669;SDS011;8448;52.034;5.158;2024-01-30T06:24:58;14.77;;;10.10;;
16669;SDS011;8448;52.034;5.158;2024-01-30T06:27:25;14.37;;;10.33;;
16669;SDS011;8448;52.034;5.158;2024-01-30T06:29:52;15.07;;;10.23;;
16669;SDS011;8448;52.034;5.158;2024-01-30T06:32:20;14.90;;;11.77;;
16669;SDS011;8448;52.034;5.158;2024-01-30T06:34:47;16.03;;;10.27;;
16669;SDS011;8448;52.034;5.158;2024-01-30T06:37:14;14.00;;;9.67;;
16669;SDS011;8448;52.034;5.158;2024-01-30T06:39:43;15.70;;;9.43;;
16669;SDS011;8448;52.034;5.158;2024-01-30T06:42:10;14.90;;;9.90;;
16669;SDS011;8448;52.034;5.158;2024-01-30T06:44:38;16.57;;;9.80;;
16669;SDS011;8448;52.034;5.158;2024-01-30T06:47:05;15.13;;;9.77;;
16669;SDS011;8448;52.034;5.158;2024-01-30T06:49:32;15.70;;;10.17;;
16669;SDS011;8448;52.034;5.158;2024-01-30T06:52:00;12.93;;;9.53;;
16669;SDS011;8448;52.034;5.158;2024-01-30T06:54:27;14.83;;;9.97;;
16669;SDS011;8448;52.034;5.158;2024-01-30T06:56:56;15.07;;;9.60;;
16669;SDS011;8448;52.034;5.158;2024-01-30T06:59:23;15.18;;;10.90;;
16669;SDS011;8448;52.034;5.158;2024-01-30T07:01:51;15.77;;;10.47;;
16669;SDS011;8448;52.034;5.158;2024-01-30T07:04:18;18.00;;;9.73;;
16669;SDS011;8448;52.034;5.158;2024-01-30T07:06:45;15.37;;;10.13;;
16669;SDS011;8448;52.034;5.158;2024-01-30T07:09:13;15.77;;;9.73;;
16669;SDS011;8448;52.034;5.158;2024-01-30T07:11:40;18.00;;;10.50;;
16669;SDS011;8448;52.034;5.158;2024-01-30T07:14:09;14.33;;;9.33;;
16669;SDS011;8448;52.034;5.158;2024-01-30T07:16:36;20.00;;;10.93;;
16669;SDS011;8448;52.034;5.158;2024-01-30T07:19:03;14.63;;;9.50;;
16669;SDS011;8448;52.034;5.158;2024-01-30T07:21:31;17.07;;;10.37;;
16669;SDS011;8448;52.034;5.158;2024-01-30T07:23:58;15.47;;;10.20;;
16669;SDS011;8448;52.034;5.158;2024-01-30T07:26:25;15.93;;;9.50;;
16669;SDS011;8448;52.034;5.158;2024-01-30T07:28:53;15.53;;;9.57;;
16669;SDS011;8448;52.034;5.158;2024-01-30T07:31:22;17.43;;;9.80;;
16669;SDS011;8448;52.034;5.158;2024-01-30T07:33:49;14.40;;;9.53;;
16669;SDS011;8448;52.034;5.158;2024-01-30T07:36:16;14.93;;;9.60;;
16669;SDS011;8448;52.034;5.158;2024-01-30T07:38:43;14.77;;;9.40;;
16669;SDS011;8448;52.034;5.158;2024-01-30T07:41:11;13.03;;;8.80;;
16669;SDS011;8448;52.034;5.158;2024-01-30T07:43:38;17.27;;;9.27;;
16669;SDS011;8448;52.034;5.158;2024-01-30T07:46:06;15.33;;;9.20;;
16669;SDS011;8448;52.034;5.158;2024-01-30T07:48:34;14.27;;;9.50;;
16669;SDS011;8448;52.034;5.158;2024-01-30T07:51:02;15.77;;;9.27;;
16669;SDS011;8448;52.034;5.158;2024-01-30T07:53:29;15.60;;;9.80;;
16669;SDS011;8448;52.034;5.158;2024-01-30T07:55:57;14.33;;;9.53;;
16669;SDS011;8448;52.034;5.158;2024-01-30T07:58:24;15.50;;;10.33;;
16669;SDS011;8448;52.034;5.158;2024-01-30T08:00:52;14.10;;;9.07;;
16669;SDS011;8448;52.034;5.158;2024-01-30T08:03:21;16.13;;;9.70;;
16669;SDS011;8448;52.034;5.158;2024-01-30T08:05:50;16.17;;;9.30;;
16669;SDS011;8448;52.034;5.158;2024-01-30T08:08:18;15.07;;;9.70;;
16669;SDS011;8448;52.034;5.158;2024-01-30T08:10:45;17.00;;;9.37;;
16669;SDS011;8448;52.034;5.158;2024-01-30T08:13:13;17.53;;;9.70;;
16669;SDS011;8448;52.034;5.158;2024-01-30T08:15:40;18.17;;;9.97;;
16669;SDS011;8448;52.034;5.158;2024-01-30T08:18:08;15.70;;;9.60;;
16669;SDS011;8448;52.034;5.158;2024-01-30T08:20:35;17.37;;;9.60;;
16669;SDS011;8448;52.034;5.158;2024-01-30T08:23:04;16.13;;;9.33;;
16669;SDS011;8448;52.034;5.158;2024-01-30T08:25:31;17.47;;;10.20;;
16669;SDS011;8448;52.034;5.158;2024-01-30T08:27:58;17.20;;;9.60;;
16669;SDS011;8448;52.034;5.158;2024-01-30T08:30:26;18.77;;;9.67;;
16669;SDS011;8448;52.034;5.158;2024-01-30T08:32:53;16.40;;;9.60;;
16669;SDS011;8448;52.034;5.158;2024-01-30T08:35:21;15.40;;;9.63;;
16669;SDS011;8448;52.034;5.158;2024-01-30T08:37:48;16.93;;;9.20;;
16669;SDS011;8448;52.034;5.158;2024-01-30T08:40:17;16.37;;;9.87;;
16669;SDS011;8448;52.034;5.158;2024-01-30T08:42:44;17.33;;;9.83;;
16669;SDS011;8448;52.034;5.158;2024-01-30T08:45:12;14.10;;;9.30;;
16669;SDS011;8448;52.034;5.158;2024-01-30T08:47:40;17.67;;;9.63;;
16669;SDS011;8448;52.034;5.158;2024-01-30T08:50:07;14.67;;;9.10;;
16669;SDS011;8448;52.034;5.158;2024-01-30T08:52:34;15.10;;;9.97;;
16669;SDS011;8448;52.034;5.158;2024-01-30T08:55:02;15.53;;;9.17;;
16669;SDS011;8448;52.034;5.158;2024-01-30T08:57:31;15.67;;;9.10;;
16669;SDS011;8448;52.034;5.158;2024-01-30T08:59:59;17.13;;;9.63;;
16669;SDS011;8448;52.034;5.158;2024-01-30T09:02:29;17.10;;;9.30;;
16669;SDS011;8448;52.034;5.158;2024-01-30T09:04:56;16.87;;;9.33;;
16669;SDS011;8448;52.034;5.158;2024-01-30T09:07:24;16.47;;;9.07;;
16669;SDS011;8448;52.034;5.158;2024-01-30T09:09:51;16.33;;;9.43;;
16669;SDS011;8448;52.034;5.158;2024-01-30T09:12:18;15.90;;;9.33;;
16669;SDS011;8448;52.034;5.158;2024-01-30T09:14:47;16.10;;;9.30;;
16669;SDS011;8448;52.034;5.158;2024-01-30T09:17:14;17.40;;;9.23;;
16669;SDS011;8448;52.034;5.158;2024-01-30T09:19:42;14.87;;;9.20;;
16669;SDS011;8448;52.034;5.158;2024-01-30T09:22:09;14.70;;;9.50;;
16669;SDS011;8448;52.034;5.158;2024-01-30T09:24:36;16.00;;;9.50;;
16669;SDS011;8448;52.034;5.158;2024-01-30T09:27:04;15.83;;;9.33;;
16669;SDS011;8448;52.034;5.158;2024-01-30T09:29:31;14.57;;;9.70;;
16669;SDS011;8448;52.034;5.158;2024-01-30T09:32:00;16.50;;;9.43;;
16669;SDS011;8448;52.034;5.158;2024-01-30T09:34:28;13.93;;;9.50;;
16669;SDS011;8448;52.034;5.158;2024-01-30T09:36:55;14.63;;;9.50;;
16669;SDS011;8448;52.034;5.158;2024-01-30T09:39:23;21.03;;;10.00;;
16669;SDS011;8448;52.034;5.158;2024-01-30T09:41:52;16.40;;;10.10;;
16669;SDS011;8448;52.034;5.158;2024-01-30T09:44:27;16.63;;;9.87;;
16669;SDS011;8448;52.034;5.158;2024-01-30T09:46:56;16.50;;;9.83;;
16669;SDS011;8448;52.034;5.158;2024-01-30T09:49:30;16.17;;;9.77;;
16669;SDS011;8448;52.034;5.158;2024-01-30T09:51:59;14.60;;;10.03;;
16669;SDS011;8448;52.034;5.158;2024-01-30T09:54:27;15.90;;;10.03;;
16669;SDS011;8448;52.034;5.158;2024-01-30T09:56:55;17.20;;;10.03;;
16669;SDS011;8448;52.034;5.158;2024-01-30T09:59:23;13.67;;;9.00;;
16669;SDS011;8448;52.034;5.158;2024-01-30T10:01:50;17.70;;;10.07;;
16669;SDS011;8448;52.034;5.158;2024-01-30T10:04:18;15.63;;;9.43;;
16669;SDS011;8448;52.034;5.158;2024-01-30T10:06:46;13.53;;;8.97;;
16669;SDS011;8448;52.034;5.158;2024-01-30T10:09:14;19.10;;;9.87;;
16669;SDS011;8448;52.034;5.158;2024-01-30T10:11:41;13.83;;;9.30;;
16669;SDS011;8448;52.034;5.158;2024-01-30T10:14:09;16.10;;;9.43;;
16669;SDS011;8448;52.034;5.158;2024-01-30T10:16:36;11.90;;;8.33;;
16669;SDS011;8448;52.034;5.158;2024-01-30T10:19:03;13.57;;;9.17;;
16669;SDS011;8448;52.034;5.158;2024-01-30T10:21:31;17.00;;;9.10;;
16669;SDS011;8448;52.034;5.158;2024-01-30T10:24:00;15.77;;;8.90;;
16669;SDS011;8448;52.034;5.158;2024-01-30T10:26:27;13.90;;;8.33;;
16669;SDS011;8448;52.034;5.158;2024-01-30T10:28:58;17.47;;;9.07;;
16669;SDS011;8448;52.034;5.158;2024-01-30T10:31:25;15.93;;;8.83;;
16669;SDS011;8448;52.034;5.158;2024-01-30T10:33:52;12.83;;;8.70;;
16669;SDS011;8448;52.034;5.158;2024-01-30T10:36:20;15.10;;;9.03;;
16669;SDS011;8448;52.034;5.158;2024-01-30T10:38:49;15.77;;;9.03;;
16669;SDS011;8448;52.034;5.158;2024-01-30T10:41:20;14.97;;;8.50;;
16669;SDS011;8448;52.034;5.158;2024-01-30T10:43:53;14.17;;;8.77;;
16669;SDS011;8448;52.034;5.158;2024-01-30T10:46:25;12.80;;;8.13;;
16669;SDS011;8448;52.034;5.158;2024-01-30T10:48:57;13.27;;;8.10;;
16669;SDS011;8448;52.034;5.158;2024-01-30T10:51:24;15.70;;;8.57;;
16669;SDS011;8448;52.034;5.158;2024-01-30T10:53:53;14.57;;;9.23;;
16669;SDS011;8448;52.034;5.158;2024-01-30T10:56:23;14.83;;;8.70;;
16669;SDS011;8448;52.034;5.158;2024-01-30T10:58:51;16.10;;;9.27;;
16669;SDS011;8448;52.034;5.158;2024-01-30T11:01:19;13.20;;;8.57;;
16669;SDS011;8448;52.034;5.158;2024-01-30T11:03:48;15.77;;;8.40;;
16669;SDS011;8448;52.034;5.158;2024-01-30T11:06:16;17.83;;;8.50;;
16669;SDS011;8448;52.034;5.158;2024-01-30T11:08:44;15.03;;;8.40;;
16669;SDS011;8448;52.034;5.158;2024-01-30T11:11:11;15.87;;;8.60;;
16669;SDS011;8448;52.034;5.158;2024-01-30T11:13:40;11.53;;;6.93;;
16669;SDS011;8448;52.034;5.158;2024-01-30T11:16:08;9.63;;;5.03;;
16669;SDS011;8448;52.034;5.158;2024-01-30T11:18:38;8.33;;;4.50;;
16669;SDS011;8448;52.034;5.158;2024-01-30T11:21:06;7.13;;;3.93;;
16669;SDS011;8448;52.034;5.158;2024-01-30T11:23:34;6.50;;;3.60;;
16669;SDS011;8448;52.034;5.158;2024-01-30T11:26:02;9.67;;;3.73;;
16669;SDS011;8448;52.034;5.158;2024-01-30T11:28:33;11.10;;;3.23;;
16669;SDS011;8448;52.034;5.158;2024-01-30T11:31:05;8.73;;;3.13;;
16669;SDS011;8448;52.034;5.158;2024-01-30T11:33:33;9.87;;;2.70;;
16669;SDS011;8448;52.034;5.158;2024-01-30T11:36:01;6.20;;;2.20;;
16669;SDS011;8448;52.034;5.158;2024-01-30T11:38:28;6.57;;;1.90;;
16669;SDS011;8448;52.034;5.158;2024-01-30T11:40:55;3.63;;;2.00;;
16669;SDS011;8448;52.034;5.158;2024-01-30T11:43:23;5.10;;;1.87;;
16669;SDS011;8448;52.034;5.158;2024-01-30T11:45:50;5.43;;;1.60;;
16669;SDS011;8448;52.034;5.158;2024-01-30T11:48:19;4.57;;;1.50;;
16669;SDS011;8448;52.034;5.158;2024-01-30T11:50:47;6.27;;;1.70;;
16669;SDS011;8448;52.034;5.158;2024-01-30T11:53:15;8.10;;;2.00;;
16669;SDS011;8448;52.034;5.158;2024-01-30T11:55:49;4.13;;;1.90;;
16669;SDS011;8448;52.034;5.158;2024-01-30T11:58:16;4.90;;;1.80;;
16669;SDS011;8448;52.034;5.158;2024-01-30T12:00:52;6.10;;;2.43;;
16669;SDS011;8448;52.034;5.158;2024-01-30T12:03:22;5.63;;;3.03;;
16669;SDS011;8448;52.034;5.158;2024-01-30T12:05:54;6.60;;;3.83;;
16669;SDS011;8448;52.034;5.158;2024-01-30T12:08:22;7.37;;;4.37;;
16669;SDS011;8448;52.034;5.158;2024-01-30T12:10:55;6.23;;;3.87;;
16669;SDS011;8448;52.034;5.158;2024-01-30T12:13:23;9.40;;;4.23;;
16669;SDS011;8448;52.034;5.158;2024-01-30T12:15:50;7.87;;;4.10;;
16669;SDS011;8448;52.034;5.158;2024-01-30T12:18:18;8.00;;;3.93;;
16669;SDS011;8448;52.034;5.158;2024-01-30T12:20:57;8.63;;;3.80;;
16669;SDS011;8448;52.034;5.158;2024-01-30T12:23:25;7.73;;;2.70;;
16669;SDS011;8448;52.034;5.158;2024-01-30T12:25:53;9.03;;;2.80;;
16669;SDS011;8448;52.034;5.158;2024-01-30T12:28:21;7.10;;;2.70;;
16669;SDS011;8448;52.034;5.158;2024-01-30T12:30:48;10.67;;;2.70;;
16669;SDS011;8448;52.034;5.158;2024-01-30T12:33:16;7.67;;;2.80;;
16669;SDS011;8448;52.034;5.158;2024-01-30T12:35:45;7.67;;;2.70;;
16669;SDS011;8448;52.034;5.158;2024-01-30T12:38:14;7.67;;;2.70;;
16669;SDS011;8448;52.034;5.158;2024-01-30T12:40:41;7.10;;;2.67;;
16669;SDS011;8448;52.034;5.158;2024-01-30T12:43:10;7.00;;;2.60;;
16669;SDS011;8448;52.034;5.158;2024-01-30T12:45:37;8.57;;;2.40;;
16669;SDS011;8448;52.034;5.158;2024-01-30T12:48:05;7.67;;;2.60;;
16669;SDS011;8448;52.034;5.158;2024-01-30T12:50:33;7.27;;;2.53;;
16669;SDS011;8448;52.034;5.158;2024-01-30T12:53:00;7.23;;;2.40;;
16669;SDS011;8448;52.034;5.158;2024-01-30T12:55:28;4.27;;;1.67;;
16669;SDS011;8448;52.034;5.158;2024-01-30T12:57:56;5.07;;;1.70;;
16669;SDS011;8448;52.034;5.158;2024-01-30T13:00:23;3.57;;;1.50;;
16669;SDS011;8448;52.034;5.158;2024-01-30T13:02:50;4.77;;;1.60;;
16669;SDS011;8448;52.034;5.158;2024-01-30T13:05:18;5.13;;;1.50;;
16669;SDS011;8448;52.034;5.158;2024-01-30T13:07:45;3.13;;;1.27;;
16669;SDS011;8448;52.034;5.158;2024-01-30T13:10:13;4.23;;;1.33;;
16669;SDS011;8448;52.034;5.158;2024-01-30T13:12:41;3.23;;;1.13;;
16669;SDS011;8448;52.034;5.158;2024-01-30T13:15:09;2.10;;;1.00;;
16669;SDS011;8448;52.034;5.158;2024-01-30T13:17:36;4.10;;;1.10;;
16669;SDS011;8448;52.034;5.158;2024-01-30T13:20:04;2.50;;;1.27;;
16669;SDS011;8448;52.034;5.158;2024-01-30T13:22:33;4.10;;;1.20;;
16669;SDS011;8448;52.034;5.158;2024-01-30T13:25:00;8.03;;;1.10;;
16669;SDS011;8448;52.034;5.158;2024-01-30T13:27:28;5.03;;;1.17;;
16669;SDS011;8448;52.034;5.158;2024-01-30T13:29:56;4.13;;;1.10;;
16669;SDS011;8448;52.034;5.158;2024-01-30T13:32:24;5.13;;;1.20;;
16669;SDS011;8448;52.034;5.158;2024-01-30T13:34:51;4.10;;;1.07;;
16669;SDS011;8448;52.034;5.158;2024-01-30T13:37:18;5.20;;;1.33;;
16669;SDS011;8448;52.034;5.158;2024-01-30T13:39:46;6.17;;;1.30;;
16669;SDS011;8448;52.034;5.158;2024-01-30T13:42:13;5.97;;;1.30;;
16669;SDS011;8448;52.034;5.158;2024-01-30T13:44:41;6.30;;;1.50;;
16669;SDS011;8448;52.034;5.158;2024-01-30T13:47:10;3.37;;;1.03;;
16669;SDS011;8448;52.034;5.158;2024-01-30T13:49:37;5.07;;;1.30;;
16669;SDS011;8448;52.034;5.158;2024-01-30T13:52:05;5.83;;;1.20;;
16669;SDS011;8448;52.034;5.158;2024-01-30T13:54:33;3.90;;;1.10;;
16669;SDS011;8448;52.034;5.158;2024-01-30T13:57:00;5.63;;;1.20;;
16669;SDS011;8448;52.034;5.158;2024-01-30T13:59:28;6.13;;;1.60;;
16669;SDS011;8448;52.034;5.158;2024-01-30T14:01:55;4.57;;;1.00;;
16669;SDS011;8448;52.034;5.158;2024-01-30T14:04:24;3.73;;;1.50;;
16669;SDS011;8448;52.034;5.158;2024-01-30T14:06:51;6.67;;;1.43;;
16669;SDS011;8448;52.034;5.158;2024-01-30T14:09:18;4.47;;;1.40;;
16669;SDS011;8448;52.034;5.158;2024-01-30T14:11:46;4.53;;;1.30;;
16669;SDS011;8448;52.034;5.158;2024-01-30T14:14:13;6.03;;;1.37;;
16669;SDS011;8448;52.034;5.158;2024-01-30T14:16:41;6.60;;;1.93;;
16669;SDS011;8448;52.034;5.158;2024-01-30T14:19:08;7.03;;;1.63;;
16669;SDS011;8448;52.034;5.158;2024-01-30T14:21:37;4.30;;;1.57;;
16669;SDS011;8448;52.034;5.158;2024-01-30T14:24:04;6.23;;;1.80;;
16669;SDS011;8448;52.034;5.158;2024-01-30T14:26:32;3.20;;;1.60;;
16669;SDS011;8448;52.034;5.158;2024-01-30T14:28:59;5.63;;;1.83;;
16669;SDS011;8448;52.034;5.158;2024-01-30T14:31:27;11.93;;;1.93;;
16669;SDS011;8448;52.034;5.158;2024-01-30T14:33:54;5.33;;;2.10;;
16669;SDS011;8448;52.034;5.158;2024-01-30T14:36:22;6.20;;;2.20;;
16669;SDS011;8448;52.034;5.158;2024-01-30T14:38:54;5.37;;;2.60;;
16669;SDS011;8448;52.034;5.158;2024-01-30T14:41:21;7.57;;;2.63;;
16669;SDS011;8448;52.034;5.158;2024-01-30T14:43:51;8.50;;;3.00;;
16669;SDS011;8448;52.034;5.158;2024-01-30T14:46:18;7.33;;;3.10;;